sensor_id;sensor_type;location;lat;lon;timestamp;P1;durP1;ratioP1;P2;durP2;ratioP2
43449;SDS011;29041;42.266;23.110;2023-06-14T00:00:16;2.28;;;1.63;;
43449;SDS011;29041;42.266;23.110;2023-06-14T00:03:03;3.28;;;1.40;;
43449;SDS011;29041;42.266;23.110;2023-06-14T00:05:50;2.25;;;1.55;;
43449;SDS011;29041;42.266;23.110;2023-06-14T00:08:38;2.38;;;1.55;;
43449;SDS011;29041;42.266;23.110;2023-06-14T00:11:26;2.80;;;1.70;;
43449;SDS011;29041;42.266;23.110;2023-06-14T00:14:13;4.70;;;1.33;;
43449;SDS011;29041;42.266;23.110;2023-06-14T00:17:00;1.55;;;1.10;;
43449;SDS011;29041;42.266;23.110;2023-06-14T00:19:48;1.38;;;1.05;;
43449;SDS011;29041;42.266;23.110;2023-06-14T00:22:34;1.80;;;1.33;;
43449;SDS011;29041;42.266;23.110;2023-06-14T00:25:24;1.33;;;0.93;;
43449;SDS011;29041;42.266;23.110;2023-06-14T00:28:11;1.67;;;1.20;;
43449;SDS011;29041;42.266;23.110;2023-06-14T00:30:57;5.22;;;1.60;;
43449;SDS011;29041;42.266;23.110;2023-06-14T00:33:44;3.38;;;1.30;;
43449;SDS011;29041;42.266;23.110;2023-06-14T00:36:31;1.55;;;1.10;;
43449;SDS011;29041;42.266;23.110;2023-06-14T00:39:18;1.98;;;1.08;;
43449;SDS011;29041;42.266;23.110;2023-06-14T00:42:07;2.35;;;1.23;;
43449;SDS011;29041;42.266;23.110;2023-06-14T00:44:53;1.70;;;1.02;;
43449;SDS011;29041;42.266;23.110;2023-06-14T00:47:41;1.38;;;0.82;;
43449;SDS011;29041;42.266;23.110;2023-06-14T00:50:28;2.17;;;1.10;;
43449;SDS011;29041;42.266;23.110;2023-06-14T00:53:18;1.85;;;0.98;;
43449;SDS011;29041;42.266;23.110;2023-06-14T00:56:05;1.33;;;1.02;;
43449;SDS011;29041;42.266;23.110;2023-06-14T00:58:54;2.25;;;1.45;;
43449;SDS011;29041;42.266;23.110;2023-06-14T01:01:41;1.70;;;1.15;;
43449;SDS011;29041;42.266;23.110;2023-06-14T01:04:28;2.67;;;1.35;;
43449;SDS011;29041;42.266;23.110;2023-06-14T01:07:18;1.38;;;1.15;;
43449;SDS011;29041;42.266;23.110;2023-06-14T01:10:14;1.80;;;1.30;;
43449;SDS011;29041;42.266;23.110;2023-06-14T01:13:05;5.00;;;1.40;;
43449;SDS011;29041;42.266;23.110;2023-06-14T01:15:54;2.92;;;1.63;;
43449;SDS011;29041;42.266;23.110;2023-06-14T01:18:41;2.05;;;1.17;;
43449;SDS011;29041;42.266;23.110;2023-06-14T01:24:42;2.78;;;1.75;;
43449;SDS011;29041;42.266;23.110;2023-06-14T01:27:30;1.67;;;1.10;;
43449;SDS011;29041;42.266;23.110;2023-06-14T01:30:18;2.60;;;1.52;;
43449;SDS011;29041;42.266;23.110;2023-06-14T01:33:06;3.42;;;1.42;;
43449;SDS011;29041;42.266;23.110;2023-06-14T01:35:53;2.03;;;1.35;;
43449;SDS011;29041;42.266;23.110;2023-06-14T01:38:41;2.17;;;1.48;;
43449;SDS011;29041;42.266;23.110;2023-06-14T01:41:31;1.58;;;1.38;;
43449;SDS011;29041;42.266;23.110;2023-06-14T01:44:20;2.00;;;1.27;;
43449;SDS011;29041;42.266;23.110;2023-06-14T01:47:07;4.15;;;2.42;;
43449;SDS011;29041;42.266;23.110;2023-06-14T01:49:54;2.40;;;1.40;;
43449;SDS011;29041;42.266;23.110;2023-06-14T01:52:42;3.50;;;2.38;;
43449;SDS011;29041;42.266;23.110;2023-06-14T01:55:29;3.47;;;2.47;;
43449;SDS011;29041;42.266;23.110;2023-06-14T01:58:24;5.35;;;2.17;;
43449;SDS011;29041;42.266;23.110;2023-06-14T02:01:11;2.58;;;2.13;;
43449;SDS011;29041;42.266;23.110;2023-06-14T02:04:01;4.10;;;2.17;;
43449;SDS011;29041;42.266;23.110;2023-06-14T02:06:48;6.10;;;2.63;;
43449;SDS011;29041;42.266;23.110;2023-06-14T02:09:36;3.92;;;2.28;;
43449;SDS011;29041;42.266;23.110;2023-06-14T02:12:23;3.17;;;2.50;;
43449;SDS011;29041;42.266;23.110;2023-06-14T02:15:11;5.28;;;1.80;;
43449;SDS011;29041;42.266;23.110;2023-06-14T02:18:02;3.78;;;3.08;;
43449;SDS011;29041;42.266;23.110;2023-06-14T02:20:49;4.22;;;2.67;;
43449;SDS011;29041;42.266;23.110;2023-06-14T02:23:35;3.83;;;2.30;;
43449;SDS011;29041;42.266;23.110;2023-06-14T02:26:22;3.45;;;2.20;;
43449;SDS011;29041;42.266;23.110;2023-06-14T02:29:09;6.80;;;2.80;;
43449;SDS011;29041;42.266;23.110;2023-06-14T02:31:59;4.00;;;2.15;;
43449;SDS011;29041;42.266;23.110;2023-06-14T02:34:46;7.40;;;2.78;;
43449;SDS011;29041;42.266;23.110;2023-06-14T02:37:35;3.42;;;2.28;;
43449;SDS011;29041;42.266;23.110;2023-06-14T02:40:22;7.22;;;3.10;;
43449;SDS011;29041;42.266;23.110;2023-06-14T02:43:09;4.50;;;2.50;;
43449;SDS011;29041;42.266;23.110;2023-06-14T02:45:56;4.85;;;3.17;;
43449;SDS011;29041;42.266;23.110;2023-06-14T02:48:44;4.57;;;2.58;;
43449;SDS011;29041;42.266;23.110;2023-06-14T02:51:31;5.07;;;3.05;;
43449;SDS011;29041;42.266;23.110;2023-06-14T02:54:18;4.28;;;2.58;;
43449;SDS011;29041;42.266;23.110;2023-06-14T02:57:05;4.20;;;2.92;;
43449;SDS011;29041;42.266;23.110;2023-06-14T02:59:53;7.07;;;2.70;;
43449;SDS011;29041;42.266;23.110;2023-06-14T03:02:40;3.42;;;2.63;;
43449;SDS011;29041;42.266;23.110;2023-06-14T03:05:29;4.57;;;2.20;;
43449;SDS011;29041;42.266;23.110;2023-06-14T03:08:16;4.78;;;2.65;;
43449;SDS011;29041;42.266;23.110;2023-06-14T03:11:05;5.40;;;2.97;;
43449;SDS011;29041;42.266;23.110;2023-06-14T03:13:52;3.63;;;2.22;;
43449;SDS011;29041;42.266;23.110;2023-06-14T03:16:39;4.55;;;2.95;;
43449;SDS011;29041;42.266;23.110;2023-06-14T03:19:26;3.53;;;2.45;;
43449;SDS011;29041;42.266;23.110;2023-06-14T03:22:14;3.63;;;2.35;;
43449;SDS011;29041;42.266;23.110;2023-06-14T03:25:01;5.18;;;2.67;;
43449;SDS011;29041;42.266;23.110;2023-06-14T03:27:50;4.82;;;2.65;;
43449;SDS011;29041;42.266;23.110;2023-06-14T03:30:37;5.05;;;3.25;;
43449;SDS011;29041;42.266;23.110;2023-06-14T03:33:24;3.75;;;2.50;;
43449;SDS011;29041;42.266;23.110;2023-06-14T03:36:11;6.40;;;2.33;;
43449;SDS011;29041;42.266;23.110;2023-06-14T03:39:00;2.60;;;1.50;;
43449;SDS011;29041;42.266;23.110;2023-06-14T03:41:46;5.30;;;2.90;;
43449;SDS011;29041;42.266;23.110;2023-06-14T03:44:33;8.55;;;2.30;;
43449;SDS011;29041;42.266;23.110;2023-06-14T03:47:20;4.13;;;2.33;;
43449;SDS011;29041;42.266;23.110;2023-06-14T03:50:07;3.22;;;2.03;;
43449;SDS011;29041;42.266;23.110;2023-06-14T03:52:54;3.15;;;2.08;;
43449;SDS011;29041;42.266;23.110;2023-06-14T03:55:43;6.97;;;2.42;;
43449;SDS011;29041;42.266;23.110;2023-06-14T03:58:30;4.45;;;2.30;;
43449;SDS011;29041;42.266;23.110;2023-06-14T04:01:17;5.32;;;1.73;;
43449;SDS011;29041;42.266;23.110;2023-06-14T04:04:04;10.40;;;3.00;;
43449;SDS011;29041;42.266;23.110;2023-06-14T04:06:51;4.97;;;2.60;;
43449;SDS011;29041;42.266;23.110;2023-06-14T04:09:38;9.40;;;2.92;;
43449;SDS011;29041;42.266;23.110;2023-06-14T04:12:26;7.22;;;2.70;;
43449;SDS011;29041;42.266;23.110;2023-06-14T04:15:13;6.82;;;2.97;;
43449;SDS011;29041;42.266;23.110;2023-06-14T04:18:00;6.00;;;3.33;;
43449;SDS011;29041;42.266;23.110;2023-06-14T04:20:47;8.48;;;2.60;;
43449;SDS011;29041;42.266;23.110;2023-06-14T04:23:35;4.28;;;3.17;;
43449;SDS011;29041;42.266;23.110;2023-06-14T04:26:23;4.47;;;3.00;;
43449;SDS011;29041;42.266;23.110;2023-06-14T04:29:16;6.60;;;3.10;;
43449;SDS011;29041;42.266;23.110;2023-06-14T04:32:05;6.18;;;2.67;;
43449;SDS011;29041;42.266;23.110;2023-06-14T04:34:55;6.03;;;2.50;;
43449;SDS011;29041;42.266;23.110;2023-06-14T04:37:42;3.17;;;2.00;;
43449;SDS011;29041;42.266;23.110;2023-06-14T04:40:30;3.47;;;2.00;;
43449;SDS011;29041;42.266;23.110;2023-06-14T04:43:19;4.15;;;2.65;;
43449;SDS011;29041;42.266;23.110;2023-06-14T04:46:14;3.92;;;2.72;;
43449;SDS011;29041;42.266;23.110;2023-06-14T04:49:01;3.45;;;2.60;;
43449;SDS011;29041;42.266;23.110;2023-06-14T04:51:48;5.68;;;2.53;;
43449;SDS011;29041;42.266;23.110;2023-06-14T04:54:36;3.83;;;2.53;;
43449;SDS011;29041;42.266;23.110;2023-06-14T04:57:23;5.03;;;2.78;;
43449;SDS011;29041;42.266;23.110;2023-06-14T05:00:11;5.20;;;3.17;;
43449;SDS011;29041;42.266;23.110;2023-06-14T05:03:00;4.78;;;3.47;;
43449;SDS011;29041;42.266;23.110;2023-06-14T05:05:48;7.05;;;3.25;;
43449;SDS011;29041;42.266;23.110;2023-06-14T05:08:35;5.80;;;2.78;;
43449;SDS011;29041;42.266;23.110;2023-06-14T05:11:23;8.75;;;3.47;;
43449;SDS011;29041;42.266;23.110;2023-06-14T05:14:12;6.68;;;4.97;;
43449;SDS011;29041;42.266;23.110;2023-06-14T05:16:59;5.78;;;3.40;;
43449;SDS011;29041;42.266;23.110;2023-06-14T05:19:47;4.82;;;3.20;;
43449;SDS011;29041;42.266;23.110;2023-06-14T05:22:34;7.80;;;3.35;;
43449;SDS011;29041;42.266;23.110;2023-06-14T05:25:21;6.05;;;3.95;;
43449;SDS011;29041;42.266;23.110;2023-06-14T05:28:08;6.82;;;4.03;;
43449;SDS011;29041;42.266;23.110;2023-06-14T05:30:55;5.32;;;3.30;;
43449;SDS011;29041;42.266;23.110;2023-06-14T05:33:41;6.22;;;3.60;;
43449;SDS011;29041;42.266;23.110;2023-06-14T05:36:30;8.20;;;4.05;;
43449;SDS011;29041;42.266;23.110;2023-06-14T05:39:17;8.05;;;3.83;;
43449;SDS011;29041;42.266;23.110;2023-06-14T05:42:04;8.20;;;3.78;;
43449;SDS011;29041;42.266;23.110;2023-06-14T05:44:51;7.95;;;5.80;;
43449;SDS011;29041;42.266;23.110;2023-06-14T05:47:38;9.60;;;4.25;;
43449;SDS011;29041;42.266;23.110;2023-06-14T05:50:25;6.53;;;3.42;;
43449;SDS011;29041;42.266;23.110;2023-06-14T05:53:13;5.93;;;3.30;;
43449;SDS011;29041;42.266;23.110;2023-06-14T05:56:00;5.32;;;3.60;;
43449;SDS011;29041;42.266;23.110;2023-06-14T05:58:47;6.82;;;3.63;;
43449;SDS011;29041;42.266;23.110;2023-06-14T06:01:34;5.45;;;3.40;;
43449;SDS011;29041;42.266;23.110;2023-06-14T06:04:22;4.97;;;3.42;;
43449;SDS011;29041;42.266;23.110;2023-06-14T06:07:09;7.45;;;3.63;;
43449;SDS011;29041;42.266;23.110;2023-06-14T06:09:58;9.93;;;3.58;;
43449;SDS011;29041;42.266;23.110;2023-06-14T06:12:45;8.35;;;4.53;;
43449;SDS011;29041;42.266;23.110;2023-06-14T06:15:33;9.63;;;5.53;;
43449;SDS011;29041;42.266;23.110;2023-06-14T06:18:21;6.10;;;3.47;;
43449;SDS011;29041;42.266;23.110;2023-06-14T06:21:08;5.70;;;2.95;;
43449;SDS011;29041;42.266;23.110;2023-06-14T06:23:55;5.85;;;3.50;;
43449;SDS011;29041;42.266;23.110;2023-06-14T06:26:43;4.60;;;3.58;;
43449;SDS011;29041;42.266;23.110;2023-06-14T06:29:30;7.25;;;3.90;;
43449;SDS011;29041;42.266;23.110;2023-06-14T06:32:17;5.80;;;3.50;;
43449;SDS011;29041;42.266;23.110;2023-06-14T06:35:04;4.68;;;3.10;;
43449;SDS011;29041;42.266;23.110;2023-06-14T06:37:54;10.40;;;3.72;;
43449;SDS011;29041;42.266;23.110;2023-06-14T06:40:41;4.10;;;2.80;;
43449;SDS011;29041;42.266;23.110;2023-06-14T06:43:29;5.70;;;3.78;;
43449;SDS011;29041;42.266;23.110;2023-06-14T06:46:16;6.55;;;3.85;;
43449;SDS011;29041;42.266;23.110;2023-06-14T06:49:04;5.63;;;3.83;;
43449;SDS011;29041;42.266;23.110;2023-06-14T06:52:01;5.93;;;3.90;;
43449;SDS011;29041;42.266;23.110;2023-06-14T06:54:48;6.95;;;3.88;;
43449;SDS011;29041;42.266;23.110;2023-06-14T06:57:40;6.55;;;2.88;;
43449;SDS011;29041;42.266;23.110;2023-06-14T07:00:28;6.47;;;3.88;;
43449;SDS011;29041;42.266;23.110;2023-06-14T07:03:15;6.72;;;3.97;;
43449;SDS011;29041;42.266;23.110;2023-06-14T07:06:03;8.68;;;4.13;;
43449;SDS011;29041;42.266;23.110;2023-06-14T07:08:50;7.22;;;3.78;;
43449;SDS011;29041;42.266;23.110;2023-06-14T07:11:43;4.85;;;4.00;;
43449;SDS011;29041;42.266;23.110;2023-06-14T07:14:30;7.95;;;4.47;;
43449;SDS011;29041;42.266;23.110;2023-06-14T07:17:18;5.55;;;3.50;;
43449;SDS011;29041;42.266;23.110;2023-06-14T07:20:05;7.50;;;4.75;;
43449;SDS011;29041;42.266;23.110;2023-06-14T07:22:58;5.68;;;3.63;;
43449;SDS011;29041;42.266;23.110;2023-06-14T07:25:45;7.60;;;3.90;;
43449;SDS011;29041;42.266;23.110;2023-06-14T07:28:32;8.38;;;4.25;;
43449;SDS011;29041;42.266;23.110;2023-06-14T07:31:19;6.45;;;3.88;;
43449;SDS011;29041;42.266;23.110;2023-06-14T07:34:08;7.50;;;4.72;;
43449;SDS011;29041;42.266;23.110;2023-06-14T07:36:55;9.52;;;5.22;;
43449;SDS011;29041;42.266;23.110;2023-06-14T07:39:41;5.45;;;3.30;;
43449;SDS011;29041;42.266;23.110;2023-06-14T07:42:28;5.88;;;3.83;;
43449;SDS011;29041;42.266;23.110;2023-06-14T07:45:15;10.38;;;4.45;;
43449;SDS011;29041;42.266;23.110;2023-06-14T07:48:02;10.38;;;5.38;;
43449;SDS011;29041;42.266;23.110;2023-06-14T07:50:50;9.73;;;4.57;;
43449;SDS011;29041;42.266;23.110;2023-06-14T07:53:37;9.13;;;5.25;;
43449;SDS011;29041;42.266;23.110;2023-06-14T07:56:24;10.02;;;6.10;;
43449;SDS011;29041;42.266;23.110;2023-06-14T07:59:11;9.43;;;5.43;;
43449;SDS011;29041;42.266;23.110;2023-06-14T08:01:58;10.93;;;5.50;;
43449;SDS011;29041;42.266;23.110;2023-06-14T08:04:45;9.50;;;6.05;;
43449;SDS011;29041;42.266;23.110;2023-06-14T08:07:33;11.48;;;5.70;;
43449;SDS011;29041;42.266;23.110;2023-06-14T08:10:20;8.65;;;5.57;;
43449;SDS011;29041;42.266;23.110;2023-06-14T08:13:07;7.30;;;4.70;;
43449;SDS011;29041;42.266;23.110;2023-06-14T08:15:55;6.40;;;4.68;;
43449;SDS011;29041;42.266;23.110;2023-06-14T08:18:43;6.78;;;4.75;;
43449;SDS011;29041;42.266;23.110;2023-06-14T08:21:30;6.65;;;4.85;;
43449;SDS011;29041;42.266;23.110;2023-06-14T08:24:22;7.10;;;5.47;;
43449;SDS011;29041;42.266;23.110;2023-06-14T08:27:09;9.77;;;5.43;;
43449;SDS011;29041;42.266;23.110;2023-06-14T08:29:56;9.85;;;5.22;;
43449;SDS011;29041;42.266;23.110;2023-06-14T08:32:43;8.20;;;4.82;;
43449;SDS011;29041;42.266;23.110;2023-06-14T08:35:30;7.30;;;4.82;;
43449;SDS011;29041;42.266;23.110;2023-06-14T08:38:18;8.90;;;4.43;;
43449;SDS011;29041;42.266;23.110;2023-06-14T08:41:06;6.53;;;4.30;;
43449;SDS011;29041;42.266;23.110;2023-06-14T08:43:53;7.57;;;4.78;;
43449;SDS011;29041;42.266;23.110;2023-06-14T08:46:40;7.88;;;4.47;;
43449;SDS011;29041;42.266;23.110;2023-06-14T08:49:28;7.25;;;4.80;;
43449;SDS011;29041;42.266;23.110;2023-06-14T08:52:15;9.38;;;4.28;;
43449;SDS011;29041;42.266;23.110;2023-06-14T08:55:06;6.43;;;4.13;;
43449;SDS011;29041;42.266;23.110;2023-06-14T08:57:56;7.65;;;4.25;;
43449;SDS011;29041;42.266;23.110;2023-06-14T09:00:44;8.27;;;4.03;;
43449;SDS011;29041;42.266;23.110;2023-06-14T09:03:31;5.60;;;4.60;;
43449;SDS011;29041;42.266;23.110;2023-06-14T09:06:18;6.35;;;4.18;;
43449;SDS011;29041;42.266;23.110;2023-06-14T09:09:08;5.63;;;3.97;;
43449;SDS011;29041;42.266;23.110;2023-06-14T09:12:07;5.53;;;3.28;;
43449;SDS011;29041;42.266;23.110;2023-06-14T09:14:57;6.15;;;3.42;;
43449;SDS011;29041;42.266;23.110;2023-06-14T09:17:44;4.80;;;3.65;;
43449;SDS011;29041;42.266;23.110;2023-06-14T09:20:31;6.35;;;4.03;;
43449;SDS011;29041;42.266;23.110;2023-06-14T09:23:20;5.15;;;4.18;;
43449;SDS011;29041;42.266;23.110;2023-06-14T09:26:07;6.18;;;4.03;;
43449;SDS011;29041;42.266;23.110;2023-06-14T09:28:55;6.13;;;3.88;;
43449;SDS011;29041;42.266;23.110;2023-06-14T09:31:45;5.22;;;3.83;;
43449;SDS011;29041;42.266;23.110;2023-06-14T09:34:32;7.22;;;3.33;;
43449;SDS011;29041;42.266;23.110;2023-06-14T09:37:27;7.35;;;3.85;;
43449;SDS011;29041;42.266;23.110;2023-06-14T09:40:15;4.07;;;3.30;;
43449;SDS011;29041;42.266;23.110;2023-06-14T09:43:07;5.47;;;4.07;;
43449;SDS011;29041;42.266;23.110;2023-06-14T09:45:55;5.40;;;3.95;;
43449;SDS011;29041;42.266;23.110;2023-06-14T09:48:43;4.30;;;3.45;;
43449;SDS011;29041;42.266;23.110;2023-06-14T09:51:30;6.80;;;4.25;;
43449;SDS011;29041;42.266;23.110;2023-06-14T09:54:19;4.78;;;3.67;;
43449;SDS011;29041;42.266;23.110;2023-06-14T09:57:07;5.45;;;3.35;;
43449;SDS011;29041;42.266;23.110;2023-06-14T09:59:56;3.80;;;2.97;;
43449;SDS011;29041;42.266;23.110;2023-06-14T10:02:44;5.60;;;3.13;;
43449;SDS011;29041;42.266;23.110;2023-06-14T10:05:37;4.07;;;2.85;;
43449;SDS011;29041;42.266;23.110;2023-06-14T10:08:25;4.97;;;2.92;;
43449;SDS011;29041;42.266;23.110;2023-06-14T10:11:14;6.82;;;3.40;;
43449;SDS011;29041;42.266;23.110;2023-06-14T10:14:01;4.22;;;2.90;;
43449;SDS011;29041;42.266;23.110;2023-06-14T10:16:52;3.38;;;2.65;;
43449;SDS011;29041;42.266;23.110;2023-06-14T10:19:44;4.38;;;2.92;;
43449;SDS011;29041;42.266;23.110;2023-06-14T10:22:35;4.78;;;3.00;;
43449;SDS011;29041;42.266;23.110;2023-06-14T10:25:27;5.00;;;3.00;;
43449;SDS011;29041;42.266;23.110;2023-06-14T10:28:15;3.47;;;2.95;;
43449;SDS011;29041;42.266;23.110;2023-06-14T10:31:04;5.07;;;3.10;;
43449;SDS011;29041;42.266;23.110;2023-06-14T10:33:56;4.22;;;3.22;;
43449;SDS011;29041;42.266;23.110;2023-06-14T10:36:43;3.67;;;2.72;;
43449;SDS011;29041;42.266;23.110;2023-06-14T10:39:31;5.50;;;2.88;;
43449;SDS011;29041;42.266;23.110;2023-06-14T10:42:19;4.68;;;3.47;;
43449;SDS011;29041;42.266;23.110;2023-06-14T10:45:08;3.42;;;2.38;;
43449;SDS011;29041;42.266;23.110;2023-06-14T10:47:59;4.25;;;3.15;;
43449;SDS011;29041;42.266;23.110;2023-06-14T10:50:47;3.38;;;2.35;;
43449;SDS011;29041;42.266;23.110;2023-06-14T10:53:39;3.78;;;2.50;;
43449;SDS011;29041;42.266;23.110;2023-06-14T10:56:28;4.28;;;2.83;;
43449;SDS011;29041;42.266;23.110;2023-06-14T10:59:16;3.92;;;3.30;;
43449;SDS011;29041;42.266;23.110;2023-06-14T11:02:20;5.03;;;2.30;;
43449;SDS011;29041;42.266;23.110;2023-06-14T11:05:14;2.42;;;1.92;;
43449;SDS011;29041;42.266;23.110;2023-06-14T11:08:12;3.33;;;2.35;;
43449;SDS011;29041;42.266;23.110;2023-06-14T11:11:05;4.28;;;2.42;;
43449;SDS011;29041;42.266;23.110;2023-06-14T11:13:54;3.13;;;2.03;;
43449;SDS011;29041;42.266;23.110;2023-06-14T11:16:40;4.13;;;2.67;;
43449;SDS011;29041;42.266;23.110;2023-06-14T11:19:27;3.20;;;2.38;;
43449;SDS011;29041;42.266;23.110;2023-06-14T11:22:15;5.45;;;3.28;;
43449;SDS011;29041;42.266;23.110;2023-06-14T11:25:02;4.90;;;2.78;;
43449;SDS011;29041;42.266;23.110;2023-06-14T11:27:50;3.97;;;3.28;;
43449;SDS011;29041;42.266;23.110;2023-06-14T11:33:56;3.85;;;3.30;;
43449;SDS011;29041;42.266;23.110;2023-06-14T11:36:43;3.58;;;2.58;;
43449;SDS011;29041;42.266;23.110;2023-06-14T11:39:31;4.07;;;2.65;;
43449;SDS011;29041;42.266;23.110;2023-06-14T11:42:18;2.88;;;2.53;;
43449;SDS011;29041;42.266;23.110;2023-06-14T11:45:07;3.63;;;3.22;;
43449;SDS011;29041;42.266;23.110;2023-06-14T11:47:54;3.53;;;2.85;;
43449;SDS011;29041;42.266;23.110;2023-06-14T11:50:44;4.75;;;3.13;;
43449;SDS011;29041;42.266;23.110;2023-06-14T11:53:31;4.78;;;3.35;;
43449;SDS011;29041;42.266;23.110;2023-06-14T11:56:17;7.35;;;3.95;;
43449;SDS011;29041;42.266;23.110;2023-06-14T11:59:04;4.43;;;3.63;;
43449;SDS011;29041;42.266;23.110;2023-06-14T12:01:52;5.10;;;3.42;;
43449;SDS011;29041;42.266;23.110;2023-06-14T12:04:40;8.20;;;4.10;;
43449;SDS011;29041;42.266;23.110;2023-06-14T12:07:28;14.60;;;3.80;;
43449;SDS011;29041;42.266;23.110;2023-06-14T12:10:17;7.40;;;4.07;;
43449;SDS011;29041;42.266;23.110;2023-06-14T12:13:04;5.55;;;3.90;;
43449;SDS011;29041;42.266;23.110;2023-06-14T12:15:54;5.88;;;3.97;;
43449;SDS011;29041;42.266;23.110;2023-06-14T12:18:41;5.03;;;4.03;;
43449;SDS011;29041;42.266;23.110;2023-06-14T12:21:28;4.90;;;3.67;;
43449;SDS011;29041;42.266;23.110;2023-06-14T12:24:17;5.60;;;3.78;;
43449;SDS011;29041;42.266;23.110;2023-06-14T12:27:04;6.68;;;4.68;;
43449;SDS011;29041;42.266;23.110;2023-06-14T12:29:58;8.13;;;4.68;;
43449;SDS011;29041;42.266;23.110;2023-06-14T12:32:45;10.90;;;4.50;;
43449;SDS011;29041;42.266;23.110;2023-06-14T12:35:32;6.85;;;5.28;;
43449;SDS011;29041;42.266;23.110;2023-06-14T12:38:18;7.90;;;4.82;;
43449;SDS011;29041;42.266;23.110;2023-06-14T12:41:08;6.57;;;4.45;;
43449;SDS011;29041;42.266;23.110;2023-06-14T12:43:55;6.10;;;5.03;;
43449;SDS011;29041;42.266;23.110;2023-06-14T12:46:43;5.80;;;4.43;;
43449;SDS011;29041;42.266;23.110;2023-06-14T12:49:30;5.78;;;4.47;;
43449;SDS011;29041;42.266;23.110;2023-06-14T12:52:17;9.07;;;5.22;;
43449;SDS011;29041;42.266;23.110;2023-06-14T12:55:04;5.13;;;3.95;;
43449;SDS011;29041;42.266;23.110;2023-06-14T12:57:53;7.18;;;4.88;;
43449;SDS011;29041;42.266;23.110;2023-06-14T13:00:40;6.10;;;4.50;;
43449;SDS011;29041;42.266;23.110;2023-06-14T13:03:27;5.18;;;3.78;;
43449;SDS011;29041;42.266;23.110;2023-06-14T13:06:14;6.32;;;3.97;;
43449;SDS011;29041;42.266;23.110;2023-06-14T13:09:00;4.75;;;3.45;;
43449;SDS011;29041;42.266;23.110;2023-06-14T13:11:49;6.80;;;4.68;;
43449;SDS011;29041;42.266;23.110;2023-06-14T13:14:37;9.63;;;5.20;;
43449;SDS011;29041;42.266;23.110;2023-06-14T13:17:24;8.43;;;4.00;;
43449;SDS011;29041;42.266;23.110;2023-06-14T13:20:11;8.00;;;4.68;;
43449;SDS011;29041;42.266;23.110;2023-06-14T13:22:58;5.97;;;2.97;;
43449;SDS011;29041;42.266;23.110;2023-06-14T13:25:47;6.75;;;3.63;;
43449;SDS011;29041;42.266;23.110;2023-06-14T13:28:35;5.45;;;3.08;;
43449;SDS011;29041;42.266;23.110;2023-06-14T13:31:23;3.70;;;2.75;;
43449;SDS011;29041;42.266;23.110;2023-06-14T13:34:10;3.63;;;2.95;;
43449;SDS011;29041;42.266;23.110;2023-06-14T13:36:57;3.30;;;2.58;;
43449;SDS011;29041;42.266;23.110;2023-06-14T13:39:44;4.40;;;2.78;;
43449;SDS011;29041;42.266;23.110;2023-06-14T13:42:31;4.75;;;3.33;;
43449;SDS011;29041;42.266;23.110;2023-06-14T13:45:18;4.78;;;3.03;;
43449;SDS011;29041;42.266;23.110;2023-06-14T13:48:06;3.38;;;2.33;;
43449;SDS011;29041;42.266;23.110;2023-06-14T13:50:53;4.10;;;2.88;;
43449;SDS011;29041;42.266;23.110;2023-06-14T13:53:45;3.22;;;2.72;;
43449;SDS011;29041;42.266;23.110;2023-06-14T13:56:32;6.43;;;2.97;;
43449;SDS011;29041;42.266;23.110;2023-06-14T13:59:19;3.72;;;2.50;;
43449;SDS011;29041;42.266;23.110;2023-06-14T14:02:07;3.55;;;2.90;;
43449;SDS011;29041;42.266;23.110;2023-06-14T14:04:55;4.88;;;2.58;;
43449;SDS011;29041;42.266;23.110;2023-06-14T14:07:42;2.90;;;2.15;;
43449;SDS011;29041;42.266;23.110;2023-06-14T14:10:29;3.72;;;2.80;;
43449;SDS011;29041;42.266;23.110;2023-06-14T14:13:16;2.58;;;2.05;;
43449;SDS011;29041;42.266;23.110;2023-06-14T14:16:03;3.03;;;2.45;;
43449;SDS011;29041;42.266;23.110;2023-06-14T14:18:50;2.88;;;2.13;;
43449;SDS011;29041;42.266;23.110;2023-06-14T14:25:02;3.40;;;2.10;;
43449;SDS011;29041;42.266;23.110;2023-06-14T14:27:49;2.40;;;2.08;;
43449;SDS011;29041;42.266;23.110;2023-06-14T14:30:36;5.45;;;3.13;;
43449;SDS011;29041;42.266;23.110;2023-06-14T14:33:25;4.85;;;3.10;;
43449;SDS011;29041;42.266;23.110;2023-06-14T14:36:12;5.22;;;3.08;;
43449;SDS011;29041;42.266;23.110;2023-06-14T14:38:59;2.88;;;2.50;;
43449;SDS011;29041;42.266;23.110;2023-06-14T14:41:47;4.47;;;2.20;;
43449;SDS011;29041;42.266;23.110;2023-06-14T14:44:35;3.80;;;2.17;;
43449;SDS011;29041;42.266;23.110;2023-06-14T14:47:22;3.38;;;1.90;;
43449;SDS011;29041;42.266;23.110;2023-06-14T14:50:09;3.22;;;2.20;;
43449;SDS011;29041;42.266;23.110;2023-06-14T14:52:57;3.25;;;2.05;;
43449;SDS011;29041;42.266;23.110;2023-06-14T14:55:43;2.25;;;1.65;;
43449;SDS011;29041;42.266;23.110;2023-06-14T14:58:32;5.35;;;1.75;;
43449;SDS011;29041;42.266;23.110;2023-06-14T15:01:19;2.15;;;1.65;;
43449;SDS011;29041;42.266;23.110;2023-06-14T15:04:06;2.20;;;1.77;;
43449;SDS011;29041;42.266;23.110;2023-06-14T15:06:53;2.72;;;1.58;;
43449;SDS011;29041;42.266;23.110;2023-06-14T15:09:40;2.15;;;1.85;;
43449;SDS011;29041;42.266;23.110;2023-06-14T15:12:27;3.13;;;1.73;;
43449;SDS011;29041;42.266;23.110;2023-06-14T15:15:15;4.28;;;1.30;;
43449;SDS011;29041;42.266;23.110;2023-06-14T15:18:02;2.15;;;1.48;;
43449;SDS011;29041;42.266;23.110;2023-06-14T15:20:49;3.33;;;1.83;;
43449;SDS011;29041;42.266;23.110;2023-06-14T15:23:36;2.75;;;1.65;;
43449;SDS011;29041;42.266;23.110;2023-06-14T15:26:23;3.53;;;1.55;;
43449;SDS011;29041;42.266;23.110;2023-06-14T15:29:10;1.52;;;1.27;;
43449;SDS011;29041;42.266;23.110;2023-06-14T15:31:59;3.38;;;1.83;;
43449;SDS011;29041;42.266;23.110;2023-06-14T15:34:47;1.83;;;1.10;;
43449;SDS011;29041;42.266;23.110;2023-06-14T15:37:34;2.20;;;1.67;;
43449;SDS011;29041;42.266;23.110;2023-06-14T15:40:26;3.20;;;1.50;;
43449;SDS011;29041;42.266;23.110;2023-06-14T15:43:14;2.53;;;1.70;;
43449;SDS011;29041;42.266;23.110;2023-06-14T15:46:01;2.78;;;1.77;;
43449;SDS011;29041;42.266;23.110;2023-06-14T15:48:49;3.25;;;1.95;;
43449;SDS011;29041;42.266;23.110;2023-06-14T15:51:36;1.85;;;1.40;;
43449;SDS011;29041;42.266;23.110;2023-06-14T15:54:23;3.03;;;1.80;;
43449;SDS011;29041;42.266;23.110;2023-06-14T15:57:10;2.85;;;2.13;;
43449;SDS011;29041;42.266;23.110;2023-06-14T15:59:57;2.97;;;1.90;;
43449;SDS011;29041;42.266;23.110;2023-06-14T16:02:44;2.83;;;1.75;;
43449;SDS011;29041;42.266;23.110;2023-06-14T16:05:32;4.32;;;3.03;;
43449;SDS011;29041;42.266;23.110;2023-06-14T16:08:19;4.60;;;3.03;;
43449;SDS011;29041;42.266;23.110;2023-06-14T16:11:06;4.15;;;3.00;;
43449;SDS011;29041;42.266;23.110;2023-06-14T16:13:53;4.88;;;2.95;;
43449;SDS011;29041;42.266;23.110;2023-06-14T16:16:42;4.40;;;3.13;;
43449;SDS011;29041;42.266;23.110;2023-06-14T16:19:29;3.90;;;2.85;;
43449;SDS011;29041;42.266;23.110;2023-06-14T16:22:17;3.42;;;2.60;;
43449;SDS011;29041;42.266;23.110;2023-06-14T16:25:04;3.78;;;2.58;;
43449;SDS011;29041;42.266;23.110;2023-06-14T16:27:52;3.33;;;2.72;;
43449;SDS011;29041;42.266;23.110;2023-06-14T16:30:39;4.18;;;2.75;;
43449;SDS011;29041;42.266;23.110;2023-06-14T16:33:26;3.92;;;2.55;;
43449;SDS011;29041;42.266;23.110;2023-06-14T16:36:13;5.63;;;2.30;;
43449;SDS011;29041;42.266;23.110;2023-06-14T16:39:01;4.82;;;2.72;;
43449;SDS011;29041;42.266;23.110;2023-06-14T16:41:48;3.17;;;2.60;;
43449;SDS011;29041;42.266;23.110;2023-06-14T16:44:35;3.88;;;2.88;;